Time;durP1;ratioP1;P1;durP2;ratioP2;P2;SDS_P1;SDS_P2;PMS_P1;PMS_P2;Temp;Humidity;BMP_temperature;BMP_pressure;BME280_temperature;BME280_humidity;BME280_pressure;Samples;Min_cycle;Max_cycle;Signal;HPM_P1;HPM_P2
2022/12/08 00:01:26;;;;;;;19.83;14.18;;;;;;;19.48;46.57;100772.31;5036304;28;20045;-76
2022/12/08 00:03:55;;;;;;;17.60;12.98;;;;;;;19.48;46.60;100766.94;5036938;28;20547;-77
2022/12/08 00:09:37;;;;;;;19.33;13.73;;;;;;;19.48;46.53;100761.56;5036569;28;20041;-77
2022/12/08 00:12:06;;;;;;;17.65;14.35;;;;;;;19.48;46.49;100769.63;5036570;28;20042;-77
2022/12/08 00:14:44;;;;;;;18.05;14.43;;;;;;;19.47;46.58;100763.41;5037121;28;20049;-77
2022/12/08 00:17:14;;;;;;;19.80;15.27;;;;;;;19.47;46.62;100774.13;5036689;28;20046;-77
2022/12/08 00:19:42;;;;;;;18.67;14.43;;;;;;;19.47;46.62;100771.47;5034223;28;20037;-78
2022/12/08 00:22:11;;;;;;;18.45;14.93;;;;;;;19.46;46.56;100767.09;5035469;28;20509;-77
2022/12/08 00:24:40;;;;;;;21.90;16.10;;;;;;;19.45;46.18;100761.84;5034371;28;20060;-77
2022/12/08 00:27:08;;;;;;;19.23;15.40;;;;;;;19.45;46.35;100762.69;5036806;28;20056;-78
2022/12/08 00:29:36;;;;;;;20.05;14.88;;;;;;;19.45;46.64;100751.13;5037201;28;20052;-78
2022/12/08 00:32:04;;;;;;;17.05;14.32;;;;;;;19.45;46.74;100751.13;5036602;28;20060;-78
2022/12/08 00:34:32;;;;;;;20.70;15.65;;;;;;;19.44;46.33;100752.06;5036653;28;20045;-77
2022/12/08 00:36:59;;;;;;;16.20;13.98;;;;;;;19.44;46.24;100750.25;5034922;28;20492;-78
2022/12/08 00:39:27;;;;;;;21.38;15.32;;;;;;;19.44;46.54;100749.41;5036680;28;20048;-78
2022/12/08 00:42:13;;;;;;;18.60;14.35;;;;;;;19.43;46.72;100755.75;5036375;28;20079;-78
2022/12/08 00:44:44;;;;;;;18.63;15.02;;;;;;;19.43;46.57;100758.44;5036381;28;20056;-79
2022/12/08 00:47:13;;;;;;;18.42;13.63;;;;;;;19.43;46.75;100756.59;5034724;28;20064;-80
2022/12/08 00:49:41;;;;;;;19.27;14.95;;;;;;;19.42;46.34;100757.59;5036760;28;20045;-79
2022/12/08 00:52:08;;;;;;;17.02;13.70;;;;;;;19.42;46.50;100748.69;5036758;28;20072;-79
2022/12/08 00:54:36;;;;;;;19.38;15.13;;;;;;;19.41;46.60;100742.47;5036102;28;20056;-79
2022/12/08 00:57:03;;;;;;;19.77;14.98;;;;;;;19.42;46.40;100743.31;5035821;28;20515;-80
2022/12/08 00:59:31;;;;;;;16.80;13.65;;;;;;;19.41;46.47;100744.31;5034674;28;20049;-79
2022/12/08 01:01:58;;;;;;;21.70;15.50;;;;;;;19.41;46.25;100747.84;5036769;28;20486;-79
2022/12/08 01:04:26;;;;;;;19.40;15.30;;;;;;;19.42;46.38;100751.38;5035490;28;20056;-79
2022/12/08 01:06:53;;;;;;;19.00;15.43;;;;;;;19.41;46.49;100744.31;5034730;28;20057;-80
2022/12/08 01:09:20;;;;;;;20.83;15.50;;;;;;;19.41;46.32;100761.28;5034825;28;20037;-79
2022/12/08 01:11:48;;;;;;;19.45;14.85;;;;;;;19.42;46.37;100770.16;5034377;28;20047;-79
2022/12/08 01:14:15;;;;;;;21.75;16.33;;;;;;;19.41;46.14;100773.84;5035202;28;20053;-79
2022/12/08 01:16:43;;;;;;;20.45;15.75;;;;;;;19.39;46.54;100765.91;5035538;28;20052;-79
2022/12/08 01:19:12;;;;;;;19.45;15.13;;;;;;;19.40;46.49;100769.44;5035506;28;20042;-78
2022/12/08 01:21:40;;;;;;;20.10;15.07;;;;;;;19.40;46.52;100764.91;5034791;28;20049;-78
2022/12/08 01:24:19;;;;;;;18.17;14.73;;;;;;;19.40;46.63;100772.97;5034998;28;20374;-78
2022/12/08 01:26:48;;;;;;;20.10;15.30;;;;;;;19.39;46.50;100768.59;5034967;28;20044;-78
2022/12/08 01:29:16;;;;;;;20.13;15.18;;;;;;;19.40;46.58;100781.03;5044599;28;20041;-78
2022/12/08 01:31:43;;;;;;;21.45;16.40;;;;;;;19.39;46.59;100782.00;5049640;28;20501;-78
2022/12/08 01:34:11;;;;;;;19.02;15.25;;;;;;;19.40;46.56;100785.53;5034285;28;20072;-78
2022/12/08 01:36:41;;;;;;;19.88;16.05;;;;;;;19.40;46.70;100777.50;5034514;28;20056;-77
2022/12/08 01:39:13;;;;;;;19.02;15.00;;;;;;;19.39;46.55;100770.44;5036032;28;20038;-78
2022/12/08 01:41:42;;;;;;;20.48;16.13;;;;;;;19.39;46.40;100779.31;5035861;28;20058;-79
2022/12/08 01:44:10;;;;;;;19.52;15.35;;;;;;;19.39;46.30;100770.44;5035910;28;20048;-78
2022/12/08 01:46:42;;;;;;;21.90;16.33;;;;;;;19.39;46.42;100773.97;5035177;28;20041;-78
2022/12/08 01:49:16;;;;;;;20.48;15.60;;;;;;;19.38;46.28;100768.75;5035611;28;20053;-78
2022/12/08 01:52:25;;;;;;;22.85;16.73;;;;;;;19.37;46.39;100765.22;5035459;28;20151;-78
2022/12/08 01:55:07;;;;;;;20.70;15.18;;;;;;;19.36;46.32;100755.44;5027824;28;20064;-79
2022/12/08 01:57:48;;;;;;;19.85;16.13;;;;;;;19.37;46.33;100756.31;5034406;28;20049;-79
2022/12/08 02:00:18;;;;;;;21.60;15.98;;;;;;;19.36;46.54;100759.94;5034417;28;20049;-78
2022/12/08 02:03:00;;;;;;;19.38;14.02;;;;;;;19.36;46.20;100762.63;5034606;28;20041;-78
2022/12/08 02:05:32;;;;;;;19.75;15.57;;;;;;;19.35;46.49;100759.09;5034570;28;20057;-78
2022/12/08 02:08:05;;;;;;;19.75;15.23;;;;;;;19.35;46.73;100756.41;5034557;28;20049;-78
2022/12/08 02:10:37;;;;;;;20.05;15.65;;;;;;;19.36;46.49;100751.91;5034118;28;20049;-78
2022/12/08 02:13:08;;;;;;;20.80;15.68;;;;;;;19.36;46.60;100751.91;5033017;28;20072;-78
2022/12/08 02:15:57;;;;;;;21.33;15.43;;;;;;;19.34;46.36;100746.69;5033715;28;20045;-78
2022/12/08 02:18:39;;;;;;;20.25;15.55;;;;;;;19.34;46.54;100756.56;5034768;28;20053;-78
2022/12/08 02:21:36;;;;;;;19.92;15.02;;;;;;;19.34;46.49;100754.72;5034928;28;20053;-78
2022/12/08 02:24:28;;;;;;;20.95;16.05;;;;;;;19.35;46.20;100753.75;5033405;28;20041;-78
2022/12/08 02:27:07;;;;;;;21.38;16.50;;;;;;;19.34;46.52;100751.19;5034002;28;20060;-78
2022/12/08 02:29:40;;;;;;;22.70;17.17;;;;;;;19.34;46.26;100751.19;5045929;28;20056;-78
2022/12/08 02:32:44;;;;;;;18.88;15.18;;;;;;;19.34;46.48;100743.16;5054447;28;20045;-78
2022/12/08 02:35:25;;;;;;;19.50;15.07;;;;;;;19.34;46.48;100737.78;5054397;28;20045;-78
2022/12/08 02:37:52;;;;;;;18.08;15.63;;;;;;;19.33;46.64;100731.56;5054226;28;20049;-78
2022/12/08 02:41:07;;;;;;;19.55;15.38;;;;;;;19.35;46.66;100728.72;5054442;28;20401;-78
2022/12/08 02:43:47;;;;;;;18.77;14.95;;;;;;;19.34;46.47;100740.47;4996858;28;20057;-78
2022/12/08 02:50:10;;;;;;;20.52;15.50;;;;;;;19.33;46.47;100718.13;4996897;28;20042;-79
2022/12/08 02:52:43;;;;;;;17.48;14.32;;;;;;;19.33;46.35;100717.28;5012948;28;20065;-78
2022/12/08 02:55:23;;;;;;;20.00;15.88;;;;;;;19.33;46.57;100722.66;5012812;28;20433;-79
2022/12/08 02:57:56;;;;;;;15.90;13.20;;;;;;;19.33;46.55;100717.28;5012403;28;20057;-78
2022/12/08 03:00:26;;;;;;;17.65;14.30;;;;;;;19.33;46.55;100717.28;5012621;28;20038;-78
2022/12/08 03:03:23;;;;;;;16.27;13.85;;;;;;;19.34;46.46;100713.63;5012786;28;20542;-77
2022/12/08 03:06:20;;;;;;;15.95;13.63;;;;;;;19.32;46.48;100702.16;5010034;28;20058;-78
2022/12/08 03:09:02;;;;;;;16.02;13.07;;;;;;;19.31;46.71;100706.66;5012621;28;20053;-78
2022/12/08 03:11:39;;;;;;;17.73;14.27;;;;;;;19.33;46.98;100707.41;5012144;28;20058;-78
2022/12/08 03:14:09;;;;;;;18.42;13.98;;;;;;;19.32;46.58;100704.84;4995078;28;20054;-78
2022/12/08 03:16:40;;;;;;;19.20;14.00;;;;;;;19.32;46.71;100686.03;4998476;28;20518;-79
2022/12/08 03:19:18;;;;;;;16.98;13.40;;;;;;;19.31;46.93;100689.72;5034183;28;20045;-79
2022/12/08 03:21:50;;;;;;;16.63;13.18;;;;;;;19.31;46.78;100677.16;5034163;28;20049;-78
2022/12/08 03:24:21;;;;;;;18.08;13.32;;;;;;;19.30;46.44;100679.97;5037411;28;20056;-79
2022/12/08 03:26:53;;;;;;;15.43;13.02;;;;;;;19.31;46.70;100679.84;5038339;28;20477;-79
2022/12/08 03:29:20;;;;;;;15.00;13.18;;;;;;;19.31;46.47;100676.31;5036831;28;20046;-78
2022/12/08 03:31:53;;;;;;;14.90;12.73;;;;;;;19.31;46.97;100670.94;5038727;28;20053;-78
2022/12/08 03:34:24;;;;;;;17.45;12.73;;;;;;;19.31;46.49;100677.16;5037668;28;20050;-78
2022/12/08 03:36:52;;;;;;;13.45;11.90;;;;;;;19.31;46.81;100679.00;5037892;28;20068;-78
2022/12/08 03:39:19;;;;;;;17.30;12.93;;;;;;;19.31;46.39;100676.31;5037858;28;20048;-78
2022/12/08 03:41:47;;;;;;;16.25;12.43;;;;;;;19.30;46.68;100675.47;5037598;28;20061;-78
2022/12/08 03:44:14;;;;;;;13.25;11.73;;;;;;;19.30;46.73;100682.66;5038144;28;20068;-78
2022/12/08 03:46:41;;;;;;;15.18;11.77;;;;;;;19.30;46.76;100682.66;5035997;28;20053;-79
2022/12/08 03:49:08;;;;;;;13.10;11.15;;;;;;;19.30;46.60;100674.59;5037715;28;20516;-78
2022/12/08 03:51:36;;;;;;;15.25;13.00;;;;;;;19.29;46.44;100679.13;5037680;28;20061;-78
2022/12/08 03:54:03;;;;;;;15.07;12.63;;;;;;;19.30;46.65;100674.59;5036360;28;20490;-78
2022/12/08 03:56:34;;;;;;;15.25;11.95;;;;;;;19.29;46.66;100671.09;5037215;28;20108;-78
2022/12/08 03:59:02;;;;;;;14.20;11.57;;;;;;;19.29;46.61;100681.81;5035280;28;20056;-78
2022/12/08 04:01:30;;;;;;;14.40;12.32;;;;;;;19.29;46.81;100684.50;5036289;28;20050;-78
2022/12/08 04:03:57;;;;;;;13.82;11.68;;;;;;;19.30;46.80;100677.28;5037474;28;20400;-78
2022/12/08 04:06:25;;;;;;;13.88;11.38;;;;;;;19.28;46.64;100674.72;5037361;28;20048;-78
2022/12/08 04:08:52;;;;;;;14.30;11.95;;;;;;;19.29;46.48;100672.91;5036649;28;20505;-78
2022/12/08 04:11:20;;;;;;;13.05;11.30;;;;;;;19.27;47.18;100679.25;5036945;28;20041;-78
2022/12/08 04:13:47;;;;;;;15.77;11.95;;;;;;;19.29;47.15;100670.22;5034803;28;20045;-78
2022/12/08 04:16:21;;;;;;;14.00;11.95;;;;;;;19.29;46.81;100671.09;5036123;28;20501;-78
2022/12/08 04:18:49;;;;;;;15.80;11.93;;;;;;;19.28;46.73;100677.41;5036232;28;20500;-78
2022/12/08 04:21:17;;;;;;;13.00;11.48;;;;;;;19.29;47.41;100670.22;5036908;28;20371;-77
2022/12/08 04:23:45;;;;;;;15.80;11.05;;;;;;;19.29;47.35;100672.91;5036717;28;20049;-77
2022/12/08 04:26:13;;;;;;;11.68;10.27;;;;;;;19.27;46.79;100665.81;5037552;28;20041;-78
2022/12/08 04:28:40;;;;;;;15.40;11.98;;;;;;;19.28;46.84;100677.41;5040342;28;20484;-78
2022/12/08 04:31:07;;;;;;;14.07;11.20;;;;;;;19.28;46.92;100672.03;5055912;28;20041;-77
2022/12/08 04:33:35;;;;;;;13.38;10.93;;;;;;;19.27;46.49;100665.81;5056285;28;20045;-78
2022/12/08 04:36:04;;;;;;;13.68;11.52;;;;;;;19.26;46.55;100666.81;5056242;28;20040;-77
2022/12/08 04:38:32;;;;;;;12.27;10.52;;;;;;;19.26;46.57;100666.81;5056080;28;20052;-77
2022/12/08 04:41:00;;;;;;;12.25;10.95;;;;;;;19.26;46.46;100664.13;5056188;28;20492;-77
2022/12/08 04:43:27;;;;;;;13.93;11.57;;;;;;;19.26;46.48;100661.44;5055810;28;20053;-77
2022/12/08 04:45:55;;;;;;;13.45;11.30;;;;;;;19.27;46.52;100662.28;5056246;28;20045;-77
2022/12/08 04:48:22;;;;;;;13.73;10.90;;;;;;;19.25;46.54;100657.09;5056615;28;20481;-77
2022/12/08 04:50:50;;;;;;;13.35;10.90;;;;;;;19.25;46.44;100654.41;5055760;28;20041;-77
2022/12/08 04:53:18;;;;;;;13.85;10.73;;;;;;;19.24;46.61;100644.66;5055691;28;20048;-77
2022/12/08 04:55:48;;;;;;;12.48;10.65;;;;;;;19.25;46.52;100657.09;5055801;28;20045;-77
2022/12/08 04:58:18;;;;;;;13.25;11.63;;;;;;;19.24;46.52;100651.81;5055279;28;20049;-78
2022/12/08 05:00:46;;;;;;;12.98;11.10;;;;;;;19.24;46.31;100654.50;5056039;28;20045;-77
2022/12/08 05:03:14;;;;;;;12.40;10.10;;;;;;;19.23;46.41;100652.81;5055317;28;20049;-77
2022/12/08 05:05:42;;;;;;;13.43;11.68;;;;;;;19.23;46.33;100648.28;5055202;28;20048;-78
2022/12/08 05:08:10;;;;;;;13.45;10.93;;;;;;;19.24;46.60;100646.47;5054151;28;20059;-77
2022/12/08 05:10:37;;;;;;;12.85;10.95;;;;;;;19.23;46.57;100648.28;5055634;28;20052;-77
2022/12/08 05:13:04;;;;;;;12.27;9.98;;;;;;;19.24;46.60;100649.13;5055468;28;20076;-77
2022/12/08 05:15:32;;;;;;;14.25;12.23;;;;;;;19.23;46.67;100648.28;5042794;28;20048;-78
2022/12/08 05:17:59;;;;;;;14.57;11.02;;;;;;;19.22;46.58;100648.44;5035149;28;20513;-77
2022/12/08 05:20:27;;;;;;;13.05;10.90;;;;;;;19.22;46.42;100648.44;5035250;28;20044;-77
2022/12/08 05:22:54;;;;;;;14.55;11.63;;;;;;;19.22;46.36;100657.34;5035469;28;20049;-77
2022/12/08 05:25:21;;;;;;;13.00;10.82;;;;;;;19.21;46.67;100658.34;5035315;28;20045;-77
2022/12/08 05:27:49;;;;;;;12.85;11.25;;;;;;;19.22;46.19;100654.66;5035722;28;20050;-78
2022/12/08 05:30:16;;;;;;;15.07;12.63;;;;;;;19.22;46.32;100648.44;5035520;28;20041;-78
2022/12/08 05:32:44;;;;;;;14.25;12.43;;;;;;;19.22;46.26;100651.13;5035551;28;20045;-77
2022/12/08 05:35:11;;;;;;;14.57;11.82;;;;;;;19.22;46.70;100651.13;5033598;28;20513;-77
2022/12/08 05:37:38;;;;;;;13.50;11.13;;;;;;;19.22;46.32;100640.41;5036131;28;20049;-77
2022/12/08 05:40:06;;;;;;;13.00;11.18;;;;;;;19.22;46.30;100637.72;5035030;28;20053;-77
2022/12/08 05:42:34;;;;;;;13.35;11.43;;;;;;;19.21;46.47;100639.53;5035121;28;20050;-78
2022/12/08 05:45:01;;;;;;;12.52;10.93;;;;;;;19.21;46.48;100649.44;5034024;28;20057;-77
2022/12/08 05:47:29;;;;;;;13.40;11.55;;;;;;;19.21;46.37;100646.75;5034731;28;20072;-77
2022/12/08 05:50:02;;;;;;;14.07;10.82;;;;;;;19.20;46.61;100635.16;5035234;28;20049;-78
2022/12/08 05:52:31;;;;;;;15.15;12.48;;;;;;;19.21;46.35;100641.38;5034777;28;20393;-77
2022/12/08 05:54:59;;;;;;;14.13;12.10;;;;;;;19.21;46.13;100636.88;5034812;28;20393;-78
2022/12/08 05:57:26;;;;;;;14.77;10.75;;;;;;;19.21;46.46;100644.91;5034958;28;20053;-77
2022/12/08 05:59:53;;;;;;;12.75;11.45;;;;;;;19.19;46.21;100641.50;5035379;28;20485;-79
2022/12/08 06:02:21;;;;;;;12.65;11.27;;;;;;;19.20;46.43;100639.66;5035160;28;20042;-80
2022/12/08 06:04:48;;;;;;;13.70;11.02;;;;;;;19.20;46.55;100642.34;5035126;28;20045;-80
2022/12/08 06:07:16;;;;;;;13.88;11.18;;;;;;;19.19;46.41;100643.34;5034500;28;20044;-79
2022/12/08 06:09:43;;;;;;;11.43;9.60;;;;;;;19.19;46.52;100649.56;5033176;28;20050;-80
2022/12/08 06:12:11;;;;;;;13.73;10.77;;;;;;;19.19;46.25;100638.81;5034831;28;20049;-80
2022/12/08 06:14:39;;;;;;;13.50;11.68;;;;;;;19.20;46.39;100647.72;5034867;28;20099;-80
2022/12/08 06:17:06;;;;;;;13.88;11.30;;;;;;;19.20;46.28;100655.75;5034409;28;20045;-79
2022/12/08 06:19:34;;;;;;;12.98;11.57;;;;;;;19.20;46.68;100653.97;5035022;28;20504;-80
2022/12/08 06:22:01;;;;;;;12.63;11.00;;;;;;;19.19;46.08;100648.72;5034715;28;20513;-80
2022/12/08 06:24:28;;;;;;;11.98;10.15;;;;;;;19.19;46.71;100654.06;5035449;28;20057;-80
2022/12/08 06:26:56;;;;;;;14.73;11.20;;;;;;;19.17;46.26;100648.84;5035271;28;20482;-81
2022/12/08 06:29:23;;;;;;;13.65;11.85;;;;;;;19.18;46.53;100649.69;5032696;28;20053;-81
2022/12/08 06:31:51;;;;;;;14.48;10.57;;;;;;;19.18;46.70;100658.59;5034643;28;20052;-79
2022/12/08 06:34:19;;;;;;;10.88;9.73;;;;;;;19.18;46.54;100655.06;5034414;28;20050;-78
2022/12/08 06:36:46;;;;;;;14.52;12.00;;;;;;;19.18;46.62;100661.28;5034833;28;20057;-78
2022/12/08 06:39:13;;;;;;;12.70;11.25;;;;;;;19.17;46.21;100659.59;5034877;28;20068;-78
2022/12/08 06:44:31;;;;;;;17.02;12.07;;;;;;;19.16;46.07;100663.25;5024600;28;20064;-78
2022/12/08 06:46:58;;;;;;;15.57;12.15;;;;;;;19.16;46.44;100663.25;5034714;28;20212;-78
2022/12/08 06:49:25;;;;;;;15.07;11.85;;;;;;;19.15;46.06;100653.50;5033987;28;20504;-78
2022/12/08 06:51:53;;;;;;;14.25;12.00;;;;;;;19.15;46.16;100660.69;5034468;28;20038;-79
2022/12/08 06:54:20;;;;;;;16.27;12.48;;;;;;;19.15;45.90;100661.53;5034698;28;20042;-78
2022/12/08 06:56:48;;;;;;;14.00;11.93;;;;;;;19.14;46.09;100659.84;5035845;28;20056;-79
2022/12/08 06:59:16;;;;;;;15.43;12.80;;;;;;;19.13;46.03;100658.16;5038639;28;20049;-79
2022/12/08 07:01:44;;;;;;;15.35;12.50;;;;;;;19.14;45.92;100661.69;5037490;28;20056;-77
2022/12/08 07:04:12;;;;;;;15.15;12.23;;;;;;;19.13;46.43;100655.47;5038397;28;20507;-78
2022/12/08 07:06:39;;;;;;;15.93;11.68;;;;;;;19.14;46.39;100661.69;5038643;28;20056;-78
2022/12/08 07:09:06;;;;;;;16.95;13.23;;;;;;;19.13;46.18;100658.16;5036640;28;20053;-78
2022/12/08 07:11:36;;;;;;;16.63;13.25;;;;;;;19.13;46.04;100655.47;5038138;28;20049;-78
2022/12/08 07:14:04;;;;;;;13.43;11.13;;;;;;;19.12;46.01;100661.84;5036474;28;20060;-78
2022/12/08 07:16:31;;;;;;;15.93;12.55;;;;;;;19.12;45.92;100661.84;5036901;28;20041;-79
2022/12/08 07:18:59;;;;;;;14.15;12.18;;;;;;;19.12;46.08;100669.00;5036114;28;20046;-79
2022/12/08 07:21:26;;;;;;;15.75;12.60;;;;;;;19.11;46.23;100664.63;5036629;28;20041;-78
2022/12/08 07:23:54;;;;;;;15.63;11.90;;;;;;;19.11;46.05;100660.13;5038115;28;20048;-79
2022/12/08 07:26:25;;;;;;;13.20;11.15;;;;;;;19.11;46.24;100670.84;5037880;28;20046;-78
2022/12/08 07:28:53;;;;;;;15.10;12.75;;;;;;;19.11;45.69;100676.22;5038114;28;20125;-78
2022/12/08 07:31:23;;;;;;;14.68;13.13;;;;;;;19.10;46.12;100665.63;5035993;28;20520;-78
2022/12/08 07:33:51;;;;;;;15.20;11.75;;;;;;;19.11;46.04;100675.38;5037274;28;20444;-78
2022/12/08 07:36:19;;;;;;;15.85;13.60;;;;;;;19.11;46.07;100670.00;5037296;28;20052;-78
2022/12/08 07:38:47;;;;;;;14.68;12.35;;;;;;;19.10;46.17;100662.94;5038032;28;20052;-78
2022/12/08 07:41:17;;;;;;;14.90;11.25;;;;;;;19.10;45.92;100661.09;5036235;28;20076;-78
2022/12/08 07:43:45;;;;;;;12.95;11.55;;;;;;;19.10;46.20;100663.78;5037729;28;20068;-78
2022/12/08 07:46:14;;;;;;;13.05;11.63;;;;;;;19.10;46.39;100674.53;5035123;28;20050;-78
2022/12/08 07:48:42;;;;;;;13.68;12.25;;;;;;;19.10;46.12;100671.00;5036827;28;20053;-78
2022/12/08 07:51:11;;;;;;;16.02;13.38;;;;;;;19.09;45.76;100678.19;5036462;28;20069;-78
2022/12/08 07:53:44;;;;;;;15.80;12.73;;;;;;;19.08;45.97;100675.63;5037303;28;20049;-76
2022/12/08 07:56:20;;;;;;;17.10;12.98;;;;;;;19.09;46.01;100680.03;5036712;28;20053;-77
2022/12/08 07:58:47;;;;;;;14.45;12.75;;;;;;;19.08;45.88;100668.44;5037466;28;20397;-78
2022/12/08 08:01:24;;;;;;;15.32;13.32;;;;;;;19.08;46.27;100659.53;5036769;28;20056;-77
2022/12/08 08:03:53;;;;;;;12.95;11.50;;;;;;;19.06;46.23;100653.47;5035301;28;20405;-77
2022/12/08 08:06:21;;;;;;;16.98;13.73;;;;;;;19.07;45.88;100657.84;5036717;28;20422;-78
2022/12/08 08:08:48;;;;;;;17.80;14.85;;;;;;;19.06;45.87;100661.50;5035930;28;20050;-78
2022/12/08 08:11:16;;;;;;;14.80;12.88;;;;;;;19.04;45.64;100653.59;5036782;28;20048;-77
2022/12/08 08:13:48;;;;;;;15.40;13.07;;;;;;;19.03;45.97;100660.78;5035405;28;20053;-78
2022/12/08 08:16:17;;;;;;;17.55;14.90;;;;;;;19.03;45.75;100655.41;5036668;28;20042;-78
2022/12/08 08:18:51;;;;;;;17.83;15.00;;;;;;;19.02;45.59;100650.19;5035456;28;20041;-78
2022/12/08 08:21:19;;;;;;;14.13;12.13;;;;;;;19.03;46.22;100660.78;5036236;28;20405;-78
2022/12/08 08:24:07;;;;;;;16.38;13.15;;;;;;;19.03;46.23;100660.78;5034917;28;20164;-78
2022/12/08 08:26:35;;;;;;;14.05;11.48;;;;;;;19.05;46.43;100666.03;5036249;28;20516;-77
2022/12/08 08:29:03;;;;;;;14.07;12.27;;;;;;;19.06;46.52;100661.50;5035914;28;20049;-78
2022/12/08 08:31:30;;;;;;;15.45;12.77;;;;;;;19.05;46.15;100663.34;5035224;28;20493;-78
2022/12/08 08:34:03;;;;;;;15.68;13.98;;;;;;;19.06;45.87;100662.34;5036014;28;20041;-78
2022/12/08 08:36:31;;;;;;;16.52;13.13;;;;;;;19.06;46.17;100664.19;5035896;28;20512;-78
2022/12/08 08:38:58;;;;;;;16.17;13.10;;;;;;;19.07;45.98;100658.69;5036215;28;20041;-78
2022/12/08 08:41:26;;;;;;;19.20;14.68;;;;;;;19.07;46.19;100671.25;5035988;28;20405;-79
2022/12/08 08:43:53;;;;;;;16.05;13.60;;;;;;;19.06;46.37;100666.88;5036646;28;20045;-79
2022/12/08 08:46:21;;;;;;;15.98;13.23;;;;;;;19.08;46.35;100667.56;5034749;28;20054;-78
2022/12/08 08:48:48;;;;;;;15.45;13.07;;;;;;;19.07;46.36;100666.72;5036392;28;20056;-79
2022/12/08 08:51:16;;;;;;;16.95;14.00;;;;;;;19.07;46.29;100677.47;5035514;28;20041;-79
2022/12/08 08:53:43;;;;;;;15.23;12.73;;;;;;;19.08;46.87;100678.31;5035678;28;20046;-79
2022/12/08 08:56:18;;;;;;;16.13;13.40;;;;;;;19.07;46.56;100680.16;5036275;28;20053;-80
2022/12/08 08:58:49;;;;;;;19.80;14.80;;;;;;;19.09;46.27;100682.72;5035677;28;20497;-80
2022/12/08 09:01:23;;;;;;;15.93;13.35;;;;;;;19.10;46.81;100684.41;5033453;28;20497;-80
2022/12/08 09:03:50;;;;;;;17.27;14.50;;;;;;;19.10;46.81;100687.94;5035587;28;20485;-79
2022/12/08 09:06:18;;;;;;;16.58;14.50;;;;;;;19.09;46.51;100683.56;5035012;28;20057;-79
2022/12/08 09:08:47;;;;;;;19.98;15.73;;;;;;;19.11;46.76;100684.25;5035632;28;20049;-79
2022/12/08 09:11:15;;;;;;;22.98;14.85;;;;;;;19.10;46.58;100701.34;5033656;28;20045;-79
2022/12/08 09:13:42;;;;;;;17.92;15.43;;;;;;;19.11;46.44;100691.47;5036251;28;20072;-79
2022/12/08 09:16:10;;;;;;;20.30;16.02;;;;;;;19.11;46.34;100686.09;5036352;28;20149;-79
2022/12/08 09:18:38;;;;;;;21.38;17.45;;;;;;;19.11;46.34;100686.09;5035891;28;20045;-79
2022/12/08 09:21:08;;;;;;;19.00;16.35;;;;;;;19.11;46.37;100695.00;5034892;28;20060;-79
2022/12/08 09:23:35;;;;;;;20.40;16.42;;;;;;;19.11;46.45;100692.31;5035685;28;20513;-79
2022/12/08 09:26:04;;;;;;;22.58;16.65;;;;;;;19.13;47.49;100695.72;5034633;28;20068;-78
2022/12/08 09:28:32;;;;;;;25.00;17.33;;;;;;;19.13;46.72;100689.50;5034595;28;20057;-78
2022/12/08 09:31:00;;;;;;;32.30;23.02;;;;;;;19.13;45.83;100687.69;5035121;28;20072;-77
2022/12/08 09:33:27;;;;;;;32.75;25.48;;;;;;;19.11;45.08;100686.94;5034087;28;20045;-77
2022/12/08 09:35:55;;;;;;;38.67;26.75;;;;;;;19.09;44.62;100688.94;5016458;28;20050;-78
2022/12/08 09:38:22;;;;;;;31.73;26.25;;;;;;;19.10;44.62;100697.81;5034260;28;20041;-78
2022/12/08 09:40:52;;;;;;;34.95;26.92;;;;;;;19.09;44.54;100691.59;5033834;28;20050;-78
2022/12/08 09:43:47;;;;;;;34.30;27.13;;;;;;;19.07;44.34;100680.16;5034109;28;20370;-78
2022/12/08 09:46:16;;;;;;;32.83;26.92;;;;;;;19.07;43.98;100679.31;5034696;28;20405;-81
2022/12/08 09:48:54;;;;;;;33.17;26.25;;;;;;;19.05;43.93;100682.13;5034979;28;20050;-78
2022/12/08 09:51:37;;;;;;;33.05;28.08;;;;;;;19.04;43.98;100677.75;5034177;28;20060;-77
2022/12/08 09:54:17;;;;;;;33.72;25.50;;;;;;;19.05;44.95;100662.50;5034442;28;20667;-80
2022/12/08 09:56:45;;;;;;;25.83;20.33;;;;;;;19.06;45.53;100669.56;5033536;28;20053;-77
2022/12/08 09:59:24;;;;;;;23.85;19.77;;;;;;;19.07;45.97;100669.41;5032503;28;20057;-81
2022/12/08 10:01:54;;;;;;;26.60;21.00;;;;;;;19.09;45.82;100661.25;5034058;28;20046;-82
2022/12/08 10:04:31;;;;;;;22.90;18.52;;;;;;;19.09;46.03;100659.41;5031952;28;20421;-80
2022/12/08 10:07:03;;;;;;;25.35;19.23;;;;;;;19.09;46.12;100654.03;5034697;28;20045;-88
2022/12/08 10:09:33;;;;;;;25.23;18.73;;;;;;;19.11;46.27;100660.13;5034376;28;20049;-79
2022/12/08 10:12:31;;;;;;;28.00;18.88;;;;;;;19.12;46.47;100661.84;5035019;28;20038;-77
2022/12/08 10:15:29;;;;;;;22.08;17.95;;;;;;;19.12;46.46;100659.16;5033494;28;20072;-79
2022/12/08 10:18:01;;;;;;;29.33;19.77;;;;;;;19.13;45.46;100660.00;5033870;28;20068;-78
2022/12/08 10:20:36;;;;;;;29.63;21.23;;;;;;;19.11;45.30;100660.13;5032742;28;20408;-78
2022/12/08 10:23:07;;;;;;;22.25;17.30;;;;;;;19.10;45.99;100655.75;5028902;28;20042;-79
2022/12/08 10:25:50;;;;;;;25.70;18.65;;;;;;;19.11;46.34;100657.44;5014064;28;20068;-77
2022/12/08 10:28:18;;;;;;;;;;;;;;;19.12;45.99;100656.47;5014108;28;20474;-76
2022/12/08 10:30:45;;;;;;;31.25;20.38;;;;;;;19.12;45.54;100656.47;5014628;28;19921;-77
2022/12/08 10:33:18;;;;;;;32.50;24.27;;;;;;;19.11;44.33;100659.25;5015109;28;20054;-76
2022/12/08 10:35:50;;;;;;;30.60;23.13;;;;;;;19.09;44.75;100654.03;5014552;28;20057;-77
2022/12/08 10:38:21;;;;;;;31.10;24.27;;;;;;;19.07;43.82;100650.63;5014455;28;20056;-77
2022/12/08 10:40:51;;;;;;;31.80;25.08;;;;;;;19.05;44.19;100644.56;5015131;28;20066;-77
2022/12/08 10:43:24;;;;;;;30.45;25.13;;;;;;;19.05;43.92;100635.66;5014216;28;20072;-78
2022/12/08 10:45:52;;;;;;;;;;;;;;;19.03;44.85;100641.16;5014784;28;20053;-76
2022/12/08 10:48:25;;;;;;;33.85;25.35;;;;;;;19.03;44.00;100635.78;5013962;28;19926;-76
2022/12/08 10:50:56;;;;;;;29.67;23.60;;;;;;;19.03;44.43;100630.41;5013961;28;20053;-76
2022/12/08 10:53:24;;;;;;;27.85;21.20;;;;;;;19.03;44.62;100635.78;5013926;28;20042;-76
2022/12/08 10:56:00;;;;;;;36.30;24.23;;;;;;;19.02;44.09;100632.25;5015149;28;20053;-76
2022/12/08 10:58:41;;;;;;;30.80;23.80;;;;;;;19.02;43.90;100634.94;5032838;28;20053;-74
2022/12/08 11:01:14;;;;;;;34.72;26.05;;;;;;;19.02;43.57;100631.41;5034718;28;20060;-89
2022/12/08 11:03:56;;;;;;;37.72;27.73;;;;;;;18.99;43.39;100623.63;5034943;28;20469;-77
2022/12/08 11:06:31;;;;;;;30.67;23.20;;;;;;;18.99;44.00;100615.56;5034313;28;20053;-76
2022/12/08 11:09:19;;;;;;;25.20;21.73;;;;;;;19.00;44.34;100618.16;5033207;28;20409;-77
2022/12/08 11:11:48;;;;;;;26.10;20.33;;;;;;;19.01;44.93;100613.63;5034221;28;20045;-77
2022/12/08 11:14:21;;;;;;;34.17;27.25;;;;;;;18.94;42.91;100605.25;5034017;28;20466;-76
2022/12/08 11:17:15;;;;;;;;;;;;;;;18.79;42.49;100598.53;5033317;28;20046;-76
2022/12/08 11:19:55;;;;;;;39.63;31.70;;;;;;;18.52;42.12;100599.94;4991631;28;20337;-76
2022/12/08 11:22:32;;;;;;;45.33;34.88;;;;;;;18.22;42.66;100586.47;4988068;28;20776;-76
2022/12/08 11:25:11;;;;;;;41.95;33.10;;;;;;;18.11;42.94;100582.03;4972819;28;20058;-78
2022/12/08 11:27:44;;;;;;;43.42;31.55;;;;;;;18.00;43.02;100576.75;4972972;28;20077;-78
2022/12/08 11:30:20;;;;;;;40.35;31.83;;;;;;;18.00;43.26;100585.63;4988895;28;20058;-76
2022/12/08 11:33:15;;;;;;;32.15;25.20;;;;;;;18.12;44.83;100585.56;4992692;28;20046;-76
2022/12/08 11:35:46;;;;;;;32.72;23.80;;;;;;;18.21;45.28;100572.22;4992703;28;20561;-75
2022/12/08 11:38:20;;;;;;;26.40;21.65;;;;;;;18.32;45.53;100575.84;4992683;28;20069;-76